createdAt,value
2023-10-09T00:00:24.590Z,10.10
2023-10-09T00:04:26.577Z,16.88
2023-10-09T00:08:31.670Z,17.05
2023-10-09T00:12:33.993Z,10.18
2023-10-09T00:16:36.375Z,11.43
2023-10-09T00:20:40.744Z,11.27
2023-10-09T00:24:47.009Z,13.38
2023-10-09T00:28:52.295Z,11.10
2023-10-09T00:32:54.728Z,8.82
2023-10-09T00:36:59.021Z,11.95
2023-10-09T00:41:09.819Z,10.90
2023-10-09T00:45:17.389Z,11.77
2023-10-09T00:49:23.433Z,12.07
2023-10-09T00:53:32.249Z,9.15
2023-10-09T00:57:41.760Z,11.90
2023-10-09T01:02:10.610Z,7.93
2023-10-09T01:06:12.897Z,11.93
2023-10-09T01:10:17.606Z,15.65
2023-10-09T01:14:22.475Z,8.50
2023-10-09T01:18:32.921Z,11.10
2023-10-09T01:22:34.856Z,7.45
2023-10-09T01:26:41.430Z,8.23
2023-10-09T01:30:44.484Z,9.32
2023-10-09T01:34:50.536Z,9.73
2023-10-09T01:38:55.002Z,11.57
2023-10-09T01:42:57.765Z,9.38
2023-10-09T01:46:59.725Z,12.02
2023-10-09T01:51:01.708Z,9.75
2023-10-09T01:55:14.764Z,8.70
2023-10-09T01:59:16.999Z,11.57
2023-10-09T02:03:19.478Z,11.30
2023-10-09T02:07:28.364Z,9.68
2023-10-09T02:11:42.723Z,10.70
2023-10-09T02:15:45.126Z,9.73
2023-10-09T02:19:50.673Z,12.52
2023-10-09T02:23:52.641Z,10.18
2023-10-09T02:27:54.928Z,9.60
2023-10-09T02:32:02.360Z,11.20
2023-10-09T02:36:06.944Z,9.57
2023-10-09T02:40:10.003Z,12.30
2023-10-09T02:44:12.542Z,12.35
2023-10-09T02:48:15.073Z,10.70
2023-10-09T02:52:25.263Z,9.70
2023-10-09T02:56:59.981Z,8.90
2023-10-09T03:01:01.933Z,11.43
2023-10-09T03:05:04.640Z,15.25
2023-10-09T03:09:17.791Z,14.52
2023-10-09T03:13:20.581Z,10.40
2023-10-09T03:17:24.096Z,15.88
2023-10-09T03:21:26.106Z,11.10
2023-10-09T03:25:29.304Z,9.90
2023-10-09T03:29:31.389Z,11.15
2023-10-09T03:33:37.068Z,9.90
2023-10-09T03:37:40.482Z,11.80
2023-10-09T03:41:43.204Z,9.60
2023-10-09T03:45:55.679Z,12.55
2023-10-09T03:49:58.451Z,10.15
2023-10-09T03:54:04.725Z,11.57
2023-10-09T03:58:07.956Z,9.90
2023-10-09T04:02:09.954Z,11.77
2023-10-09T04:06:12.354Z,10.60
2023-10-09T04:10:32.788Z,9.60
2023-10-09T04:14:34.914Z,10.32
2023-10-09T04:18:39.742Z,12.45
2023-10-09T04:22:52.124Z,15.40
2023-10-09T04:26:57.349Z,18.55
2023-10-09T04:31:03.444Z,14.05
2023-10-09T04:35:23.883Z,15.07
2023-10-09T04:39:31.695Z,14.10
2023-10-09T04:43:34.315Z,15.95
2023-10-09T04:47:37.663Z,14.68
2023-10-09T04:51:56.792Z,14.25
2023-10-09T04:55:58.768Z,12.20
2023-10-09T05:00:00.828Z,15.98
2023-10-09T05:04:05.734Z,12.35
2023-10-09T05:08:21.011Z,13.70
2023-10-09T05:12:27.854Z,14.77
2023-10-09T05:16:30.411Z,15.57
2023-10-09T05:20:50.862Z,12.37
2023-10-09T05:24:55.671Z,9.43
2023-10-09T05:28:59.529Z,12.43
2023-10-09T05:33:21.553Z,14.40
2023-10-09T05:37:26.068Z,15.93
2023-10-09T05:41:46.620Z,18.02
2023-10-09T05:46:08.656Z,18.73
2023-10-09T05:50:10.703Z,21.15
2023-10-09T05:54:13.057Z,15.15
2023-10-09T05:58:34.063Z,14.13
2023-10-09T06:03:01.753Z,12.35
2023-10-09T06:07:13.579Z,13.30
2023-10-09T06:11:34.116Z,20.52
2023-10-09T06:15:51.803Z,13.60
2023-10-09T06:20:00.128Z,13.48
2023-10-09T06:24:16.289Z,23.67
2023-10-09T06:28:34.552Z,20.63
2023-10-09T06:32:38.352Z,13.60
2023-10-09T06:36:54.025Z,14.82
2023-10-09T06:41:05.044Z,18.67
2023-10-09T06:45:10.566Z,13.60
2023-10-09T06:49:30.687Z,16.00
2023-10-09T06:53:51.108Z,14.95
2023-10-09T06:57:54.682Z,19.25
2023-10-09T07:02:35.201Z,22.58
2023-10-09T07:06:37.405Z,19.30
2023-10-09T07:10:40.999Z,18.90
2023-10-09T07:14:42.968Z,19.10
2023-10-09T07:18:51.043Z,28.98
2023-10-09T07:23:13.086Z,20.92
2023-10-09T07:27:15.337Z,25.52
2023-10-09T07:31:28.708Z,21.50
2023-10-09T07:35:45.094Z,19.05
2023-10-09T07:39:58.531Z,18.27
2023-10-09T07:44:20.149Z,23.30
2023-10-09T07:48:26.976Z,15.52
2023-10-09T07:52:30.626Z,23.17
2023-10-09T07:56:39.538Z,16.23
2023-10-09T08:01:07.631Z,22.77
2023-10-09T08:05:23.904Z,18.00
2023-10-09T08:09:44.396Z,19.83
2023-10-09T08:13:58.118Z,19.05
2023-10-09T08:18:00.584Z,15.88
2023-10-09T08:22:28.422Z,26.38
2023-10-09T08:26:30.492Z,27.77
2023-10-09T08:30:45.331Z,20.85
2023-10-09T08:38:59.560Z,26.20
2023-10-09T08:43:10.097Z,31.30
2023-10-09T08:47:13.087Z,23.65
2023-10-09T08:51:15.344Z,23.02
2023-10-09T08:55:20.118Z,23.02
2023-10-09T08:59:22.107Z,23.80
2023-10-09T09:03:25.426Z,23.63
2023-10-09T09:07:32.472Z,20.65
2023-10-09T09:11:49.731Z,23.48
2023-10-09T09:15:54.786Z,23.65
2023-10-09T09:19:58.778Z,25.83
2023-10-09T09:24:02.787Z,21.35
2023-10-09T09:28:13.591Z,25.23
2023-10-09T09:32:22.002Z,23.80
2023-10-09T09:36:27.488Z,21.00
2023-10-09T09:40:34.359Z,24.15
2023-10-09T09:44:44.638Z,35.30
2023-10-09T09:48:48.601Z,25.50
2023-10-09T09:52:54.981Z,26.58
2023-10-09T09:56:59.436Z,32.55
2023-10-09T10:01:17.262Z,29.77
2023-10-09T10:05:19.402Z,26.10
2023-10-09T10:09:40.136Z,28.20
2023-10-09T10:13:42.383Z,26.05
2023-10-09T10:18:08.451Z,25.02
2023-10-09T10:22:31.419Z,34.83
2023-10-09T10:26:37.187Z,26.73
2023-10-09T10:30:47.392Z,17.65
2023-10-09T10:34:59.220Z,25.33
2023-10-09T10:39:12.813Z,29.42
2023-10-09T10:43:35.373Z,27.83
2023-10-09T10:47:37.543Z,23.33
2023-10-09T10:51:39.924Z,19.75
2023-10-09T10:55:57.832Z,22.35
2023-10-09T11:00:14.007Z,19.85
2023-10-09T11:04:25.971Z,21.63
2023-10-09T11:08:33.963Z,19.77
2023-10-09T11:12:53.924Z,19.88
2023-10-09T11:17:06.391Z,24.65
2023-10-09T11:21:08.374Z,26.05
2023-10-09T11:25:13.203Z,25.70
2023-10-09T11:29:25.169Z,24.45
2023-10-09T11:33:30.852Z,31.48
2023-10-09T11:37:40.463Z,25.42
2023-10-09T11:41:42.655Z,23.08
2023-10-09T11:45:56.126Z,28.58
2023-10-09T11:50:02.147Z,22.73
2023-10-09T11:54:04.454Z,24.90
2023-10-09T11:58:07.922Z,23.13
2023-10-09T12:02:14.279Z,27.42
2023-10-09T12:06:20.130Z,27.40
2023-10-09T12:10:26.828Z,24.17
2023-10-09T12:14:34.550Z,24.05
2023-10-09T12:18:38.191Z,26.33
2023-10-09T12:22:42.028Z,20.38
2023-10-09T12:26:45.182Z,30.13
2023-10-09T12:30:51.722Z,16.15
2023-10-09T12:34:53.975Z,23.45
2023-10-09T12:39:00.133Z,20.92
2023-10-09T12:43:02.238Z,19.48
2023-10-09T12:47:05.880Z,17.90
2023-10-09T12:51:07.876Z,24.17
2023-10-09T12:55:19.230Z,19.65
2023-10-09T12:59:22.120Z,19.60
2023-10-09T13:03:29.622Z,23.73
2023-10-09T13:07:31.927Z,17.17
2023-10-09T13:11:33.844Z,20.45
2023-10-09T13:15:43.806Z,20.83
2023-10-09T13:19:45.794Z,17.95
2023-10-09T13:23:49.158Z,18.60
2023-10-09T13:27:54.115Z,19.55
2023-10-09T13:32:03.622Z,16.77
2023-10-09T13:36:17.039Z,21.52
2023-10-09T13:40:27.918Z,19.27
2023-10-09T13:44:31.303Z,22.38
2023-10-09T13:48:39.125Z,19.83
2023-10-09T13:52:41.140Z,20.92
2023-10-09T13:56:43.012Z,18.77
2023-10-09T14:00:47.434Z,21.58
2023-10-09T14:04:49.844Z,21.42
2023-10-09T14:08:52.308Z,28.55
2023-10-09T14:12:56.668Z,17.00
2023-10-09T14:16:58.707Z,18.15
2023-10-09T14:21:16.818Z,20.73
2023-10-09T14:25:21.961Z,16.02
2023-10-09T14:29:27.792Z,20.83
2023-10-09T14:33:37.157Z,22.95
2023-10-09T14:37:40.667Z,28.48
2023-10-09T14:41:42.677Z,22.02
2023-10-09T14:45:44.631Z,22.70
2023-10-09T14:49:49.774Z,26.02
2023-10-09T14:53:54.288Z,16.58
2023-10-09T14:57:56.511Z,19.27
2023-10-09T15:01:59.504Z,12.13
2023-10-09T15:06:01.617Z,20.77
2023-10-09T15:10:06.242Z,20.73
2023-10-09T15:14:08.386Z,20.75
2023-10-09T15:18:13.782Z,12.20
2023-10-09T15:22:15.824Z,17.70
2023-10-09T15:26:19.483Z,26.08
2023-10-09T15:30:21.631Z,17.10
2023-10-09T15:34:25.581Z,22.55
2023-10-09T15:38:30.213Z,19.02
2023-10-09T15:42:32.317Z,21.52
2023-10-09T15:46:37.050Z,17.65
2023-10-09T15:50:41.019Z,16.90
2023-10-09T15:54:44.349Z,13.75
2023-10-09T15:58:47.344Z,21.65
2023-10-09T16:02:51.982Z,22.38
2023-10-09T16:06:56.501Z,15.15
2023-10-09T16:10:59.865Z,20.35
2023-10-09T16:15:02.600Z,24.25
2023-10-09T16:19:05.665Z,20.17
2023-10-09T16:23:07.794Z,20.42
2023-10-09T16:27:11.121Z,18.30
2023-10-09T16:31:19.989Z,25.27
2023-10-09T16:35:23.728Z,24.30
2023-10-09T16:39:25.858Z,28.90
2023-10-09T16:43:29.195Z,24.00
2023-10-09T16:47:31.191Z,30.55
2023-10-09T16:51:33.088Z,20.58
2023-10-09T16:55:35.106Z,35.67
2023-10-09T16:59:40.091Z,28.27
2023-10-09T17:03:48.778Z,20.98
2023-10-09T17:07:50.947Z,24.65
2023-10-09T17:11:53.732Z,26.35
2023-10-09T17:15:55.888Z,18.20
2023-10-09T17:19:59.180Z,14.02
2023-10-09T17:24:01.211Z,23.17
2023-10-09T17:28:03.216Z,24.60
2023-10-09T17:32:07.341Z,19.23
2023-10-09T17:36:09.418Z,28.70
2023-10-09T17:40:11.984Z,22.38
2023-10-09T17:44:16.595Z,37.47
2023-10-09T17:48:19.519Z,22.35
2023-10-09T17:52:23.151Z,26.23
2023-10-09T17:56:26.978Z,18.90
2023-10-09T18:00:29.231Z,17.70
2023-10-09T18:04:36.416Z,30.55
2023-10-09T18:08:39.900Z,28.98
2023-10-09T18:12:41.819Z,24.98
2023-10-09T18:16:44.332Z,18.73
2023-10-09T18:20:47.934Z,19.88
2023-10-09T18:24:49.858Z,23.20
2023-10-09T18:28:51.784Z,21.02
2023-10-09T18:32:57.717Z,22.00
2023-10-09T18:37:00.119Z,23.08
2023-10-09T18:41:09.067Z,17.02
2023-10-09T18:45:16.476Z,27.67
2023-10-09T18:49:19.351Z,24.35
2023-10-09T18:53:21.472Z,21.08
2023-10-09T18:57:25.138Z,21.45
2023-10-09T19:01:27.508Z,17.27
2023-10-09T19:05:29.469Z,16.00
2023-10-09T19:09:32.479Z,25.08
2023-10-09T19:13:36.393Z,18.00
2023-10-09T19:17:39.066Z,23.95
2023-10-09T19:21:41.216Z,24.90
2023-10-09T19:25:44.025Z,19.15
2023-10-09T19:29:47.333Z,17.90
2023-10-09T19:33:50.491Z,21.13
2023-10-09T19:37:52.645Z,19.65
2023-10-09T19:41:54.716Z,19.75
2023-10-09T19:46:04.212Z,21.75
2023-10-09T19:50:15.825Z,19.08
2023-10-09T19:54:19.048Z,23.27
2023-10-09T19:58:20.882Z,21.60
2023-10-09T20:02:24.258Z,18.45
2023-10-09T20:06:26.164Z,25.33
2023-10-09T20:10:28.136Z,15.95
2023-10-09T20:14:30.231Z,20.77
2023-10-09T20:18:32.156Z,27.75
2023-10-09T20:22:34.121Z,22.77
2023-10-09T20:26:36.307Z,24.38
2023-10-09T20:30:38.839Z,23.80
2023-10-09T20:34:43.296Z,17.80
2023-10-09T20:38:49.664Z,17.83
2023-10-09T20:42:52.467Z,16.50
2023-10-09T20:46:55.153Z,21.13
2023-10-09T20:50:57.135Z,23.30
2023-10-09T20:54:59.175Z,22.65
2023-10-09T20:59:02.015Z,19.23
2023-10-09T21:03:06.446Z,19.77
2023-10-09T21:07:12.359Z,20.27
2023-10-09T21:11:14.593Z,21.67
2023-10-09T21:15:18.100Z,60.35
2023-10-09T21:19:20.035Z,29.25
2023-10-09T21:23:21.991Z,23.75
2023-10-09T21:27:24.070Z,23.90
2023-10-09T21:31:26.402Z,24.23
2023-10-09T21:35:29.797Z,23.80
2023-10-09T21:39:31.736Z,20.92
2023-10-09T21:43:33.683Z,21.48
2023-10-09T21:47:35.608Z,27.73
2023-10-09T21:51:38.546Z,20.45
2023-10-09T21:55:42.383Z,26.15
2023-10-09T21:59:45.986Z,22.40
2023-10-09T22:03:49.434Z,25.10
2023-10-09T22:07:52.998Z,19.60
2023-10-09T22:11:54.980Z,22.88
2023-10-09T22:15:57.019Z,22.55
2023-10-09T22:19:59.503Z,19.88
2023-10-09T22:24:01.423Z,25.67
2023-10-09T22:28:10.104Z,26.55
2023-10-09T22:32:17.642Z,20.52
2023-10-09T22:36:42.380Z,27.63
2023-10-09T22:40:52.543Z,17.80
2023-10-09T22:44:57.356Z,20.02
2023-10-09T22:49:13.964Z,19.10
2023-10-09T22:53:23.636Z,23.95
2023-10-09T22:57:26.460Z,19.85
2023-10-09T23:01:29.750Z,29.13
2023-10-09T23:05:32.750Z,18.70
2023-10-09T23:09:34.745Z,20.88
2023-10-09T23:14:15.815Z,24.65
2023-10-09T23:18:34.126Z,22.05
2023-10-09T23:22:36.029Z,20.23
2023-10-09T23:26:53.870Z,16.95
2023-10-09T23:30:57.826Z,22.98
2023-10-09T23:35:03.450Z,17.83
2023-10-09T23:39:12.183Z,17.60
2023-10-09T23:43:17.945Z,18.45
2023-10-09T23:47:27.515Z,12.57
2023-10-09T23:51:30.127Z,16.95
2023-10-09T23:55:43.047Z,15.55
2023-10-09T23:59:51.891Z,23.30
